sensor_id;sensor_type;location;lat;lon;timestamp;pressure;altitude;pressure_sealevel;temperature;humidity
77017;BME280;65949;53.132;17.930;2023-07-16T00:02:00;100490.41;;;22.17;53.38
77017;BME280;65949;53.132;17.930;2023-07-16T00:04:27;100485.47;;;22.14;53.46
77017;BME280;65949;53.132;17.930;2023-07-16T00:06:53;100485.83;;;22.11;53.57
77017;BME280;65949;53.132;17.930;2023-07-16T00:09:20;100483.44;;;22.08;53.55
77017;BME280;65949;53.132;17.930;2023-07-16T00:11:46;100478.33;;;22.04;53.71
77017;BME280;65949;53.132;17.930;2023-07-16T00:14:13;100474.66;;;22.01;53.87
77017;BME280;65949;53.132;17.930;2023-07-16T00:16:40;100470.70;;;21.98;53.91
77017;BME280;65949;53.132;17.930;2023-07-16T00:19:06;100471.02;;;21.94;53.99
77017;BME280;65949;53.132;17.930;2023-07-16T00:21:33;100464.27;;;21.89;54.11
77017;BME280;65949;53.132;17.930;2023-07-16T00:23:59;100459.55;;;21.84;54.30
77017;BME280;65949;53.132;17.930;2023-07-16T00:26:26;100459.06;;;21.78;54.41
77017;BME280;65949;53.132;17.930;2023-07-16T00:28:52;100457.73;;;21.73;54.41
77017;BME280;65949;53.132;17.930;2023-07-16T00:31:19;100453.11;;;21.68;54.55
77017;BME280;65949;53.132;17.930;2023-07-16T00:33:46;100451.41;;;21.65;54.68
77017;BME280;65949;53.132;17.930;2023-07-16T00:36:12;100447.76;;;21.62;54.76
77017;BME280;65949;53.132;17.930;2023-07-16T00:38:39;100445.42;;;21.60;54.85
77017;BME280;65949;53.132;17.930;2023-07-16T00:41:07;100442.93;;;21.58;54.81
77017;BME280;65949;53.132;17.930;2023-07-16T00:43:34;100441.04;;;21.56;54.97
77017;BME280;65949;53.132;17.930;2023-07-16T00:46:00;100440.60;;;21.52;55.12
77017;BME280;65949;53.132;17.930;2023-07-16T00:48:28;100441.71;;;21.47;55.24
77017;BME280;65949;53.132;17.930;2023-07-16T00:50:55;100447.56;;;21.43;55.37
77017;BME280;65949;53.132;17.930;2023-07-16T00:53:22;100448.17;;;21.40;55.45
77017;BME280;65949;53.132;17.930;2023-07-16T00:55:49;100451.05;;;21.38;55.51
77017;BME280;65949;53.132;17.930;2023-07-16T00:58:16;100448.15;;;21.38;55.68
77017;BME280;65949;53.132;17.930;2023-07-16T01:00:42;100442.45;;;21.37;55.63
77017;BME280;65949;53.132;17.930;2023-07-16T01:03:11;100441.13;;;21.36;55.67
77017;BME280;65949;53.132;17.930;2023-07-16T01:05:47;100438.58;;;21.35;55.71
77017;BME280;65949;53.132;17.930;2023-07-16T01:08:21;100434.91;;;21.31;55.95
77017;BME280;65949;53.132;17.930;2023-07-16T01:10:49;100432.41;;;21.27;56.05
77017;BME280;65949;53.132;17.930;2023-07-16T01:13:16;100428.65;;;21.23;56.11
77017;BME280;65949;53.132;17.930;2023-07-16T01:15:43;100432.85;;;21.22;56.20
77017;BME280;65949;53.132;17.930;2023-07-16T01:18:09;100426.81;;;21.21;56.27
77017;BME280;65949;53.132;17.930;2023-07-16T01:20:36;100430.52;;;21.21;56.41
77017;BME280;65949;53.132;17.930;2023-07-16T01:28:44;100437.35;;;21.21;56.59
77017;BME280;65949;53.132;17.930;2023-07-16T01:31:17;100443.64;;;21.21;56.76
77017;BME280;65949;53.132;17.930;2023-07-16T01:33:44;100442.32;;;21.20;56.69
77017;BME280;65949;53.132;17.930;2023-07-16T01:36:13;100441.09;;;21.19;56.84
77017;BME280;65949;53.132;17.930;2023-07-16T01:38:41;100442.77;;;21.18;56.93
77017;BME280;65949;53.132;17.930;2023-07-16T01:41:07;100440.92;;;21.17;56.93
77017;BME280;65949;53.132;17.930;2023-07-16T01:43:34;100435.73;;;21.16;56.95
77017;BME280;65949;53.132;17.930;2023-07-16T01:46:01;100436.21;;;21.17;57.03
77017;BME280;65949;53.132;17.930;2023-07-16T01:48:35;100431.11;;;21.18;57.05
77017;BME280;65949;53.132;17.930;2023-07-16T01:51:03;100418.12;;;21.17;57.19
77017;BME280;65949;53.132;17.930;2023-07-16T01:53:30;100410.83;;;21.18;57.24
77017;BME280;65949;53.132;17.930;2023-07-16T01:55:58;100404.27;;;21.17;57.34
77017;BME280;65949;53.132;17.930;2023-07-16T01:58:24;100403.05;;;21.15;57.37
77017;BME280;65949;53.132;17.930;2023-07-16T02:00:51;100399.26;;;21.12;57.47
77017;BME280;65949;53.132;17.930;2023-07-16T02:03:18;100397.98;;;21.10;57.48
77017;BME280;65949;53.132;17.930;2023-07-16T02:05:44;100401.55;;;21.13;57.50
77017;BME280;65949;53.132;17.930;2023-07-16T02:08:11;100405.60;;;21.16;57.38
77017;BME280;65949;53.132;17.930;2023-07-16T02:10:38;100404.20;;;21.19;57.32
77017;BME280;65949;53.132;17.930;2023-07-16T02:13:04;100402.30;;;21.21;57.49
77017;BME280;65949;53.132;17.930;2023-07-16T02:15:31;100410.02;;;21.21;57.46
77017;BME280;65949;53.132;17.930;2023-07-16T02:17:57;100410.93;;;21.23;57.45
77017;BME280;65949;53.132;17.930;2023-07-16T02:20:24;100407.45;;;21.24;57.52
77017;BME280;65949;53.132;17.930;2023-07-16T02:22:51;100403.80;;;21.23;57.51
77017;BME280;65949;53.132;17.930;2023-07-16T02:25:17;100397.95;;;21.23;57.62
77017;BME280;65949;53.132;17.930;2023-07-16T02:27:46;100401.02;;;21.19;57.75
77017;BME280;65949;53.132;17.930;2023-07-16T02:30:14;100399.95;;;21.17;57.74
77017;BME280;65949;53.132;17.930;2023-07-16T02:32:43;100405.42;;;21.15;57.87
77017;BME280;65949;53.132;17.930;2023-07-16T02:35:10;100405.91;;;21.14;57.88
77017;BME280;65949;53.132;17.930;2023-07-16T02:37:37;100404.23;;;21.14;58.10
77017;BME280;65949;53.132;17.930;2023-07-16T02:40:05;100401.47;;;21.10;58.12
77017;BME280;65949;53.132;17.930;2023-07-16T02:42:32;100403.40;;;21.07;58.28
77017;BME280;65949;53.132;17.930;2023-07-16T02:44:58;100405.45;;;21.03;58.47
77017;BME280;65949;53.132;17.930;2023-07-16T02:47:25;100409.56;;;20.99;58.70
77017;BME280;65949;53.132;17.930;2023-07-16T02:49:52;100407.50;;;20.99;58.43
77017;BME280;65949;53.132;17.930;2023-07-16T02:52:19;100409.40;;;20.99;58.46
77017;BME280;65949;53.132;17.930;2023-07-16T02:54:45;100416.94;;;21.00;58.39
77017;BME280;65949;53.132;17.930;2023-07-16T02:57:12;100412.67;;;21.04;58.30
77017;BME280;65949;53.132;17.930;2023-07-16T02:59:38;100409.40;;;21.10;58.11
77017;BME280;65949;53.132;17.930;2023-07-16T03:02:05;100403.73;;;21.19;57.91
77017;BME280;65949;53.132;17.930;2023-07-16T03:04:31;100396.50;;;21.32;57.64
77017;BME280;65949;53.132;17.930;2023-07-16T03:06:58;100393.34;;;21.43;57.35
77017;BME280;65949;53.132;17.930;2023-07-16T03:09:25;100396.91;;;21.55;57.21
77017;BME280;65949;53.132;17.930;2023-07-16T03:11:51;100402.08;;;21.66;56.96
77017;BME280;65949;53.132;17.930;2023-07-16T03:14:18;100402.79;;;21.75;56.71
77017;BME280;65949;53.132;17.930;2023-07-16T03:16:45;100393.74;;;21.84;56.66
77017;BME280;65949;53.132;17.930;2023-07-16T03:19:12;100391.63;;;21.91;56.45
77017;BME280;65949;53.132;17.930;2023-07-16T03:21:38;100394.04;;;21.98;56.27
77017;BME280;65949;53.132;17.930;2023-07-16T03:24:05;100388.51;;;22.06;56.19
77017;BME280;65949;53.132;17.930;2023-07-16T03:26:32;100386.89;;;22.13;55.93
77017;BME280;65949;53.132;17.930;2023-07-16T03:28:59;100390.14;;;22.22;55.90
77017;BME280;65949;53.132;17.930;2023-07-16T03:31:25;100388.73;;;22.32;55.77
77017;BME280;65949;53.132;17.930;2023-07-16T03:33:52;100380.54;;;22.42;55.44
77017;BME280;65949;53.132;17.930;2023-07-16T03:36:19;100375.91;;;22.54;55.41
77017;BME280;65949;53.132;17.930;2023-07-16T03:38:45;100373.52;;;22.66;55.13
77017;BME280;65949;53.132;17.930;2023-07-16T03:41:12;100374.63;;;22.85;54.85
77017;BME280;65949;53.132;17.930;2023-07-16T03:43:39;100375.71;;;23.09;54.43
77017;BME280;65949;53.132;17.930;2023-07-16T03:46:15;100377.11;;;23.65;53.58
77017;BME280;65949;53.132;17.930;2023-07-16T03:48:42;100373.63;;;24.68;52.07
77017;BME280;65949;53.132;17.930;2023-07-16T03:51:08;100375.16;;;25.64;50.17
77017;BME280;65949;53.132;17.930;2023-07-16T03:53:35;100376.52;;;26.44;48.70
77017;BME280;65949;53.132;17.930;2023-07-16T03:56:01;100372.54;;;27.14;47.41
77017;BME280;65949;53.132;17.930;2023-07-16T03:58:28;100371.27;;;27.67;46.13
77017;BME280;65949;53.132;17.930;2023-07-16T04:00:55;100371.64;;;27.62;45.60
77017;BME280;65949;53.132;17.930;2023-07-16T04:03:22;100366.59;;;26.93;46.11
77017;BME280;65949;53.132;17.930;2023-07-16T04:05:49;100372.67;;;26.42;46.62
77017;BME280;65949;53.132;17.930;2023-07-16T04:08:15;100374.77;;;25.93;47.45
77017;BME280;65949;53.132;17.930;2023-07-16T04:10:42;100376.73;;;25.56;47.96
77017;BME280;65949;53.132;17.930;2023-07-16T04:13:08;100376.39;;;25.26;48.55
77017;BME280;65949;53.132;17.930;2023-07-16T04:15:35;100376.17;;;25.02;49.06
77017;BME280;65949;53.132;17.930;2023-07-16T04:18:02;100379.54;;;24.81;49.44
77017;BME280;65949;53.132;17.930;2023-07-16T04:20:30;100369.88;;;24.62;49.92
77017;BME280;65949;53.132;17.930;2023-07-16T04:22:57;100371.89;;;24.49;50.28
77017;BME280;65949;53.132;17.930;2023-07-16T04:25:23;100378.70;;;24.40;50.43
77017;BME280;65949;53.132;17.930;2023-07-16T04:27:50;100388.01;;;24.33;50.91
77017;BME280;65949;53.132;17.930;2023-07-16T04:30:16;100398.66;;;24.27;51.19
77017;BME280;65949;53.132;17.930;2023-07-16T04:32:43;100412.55;;;24.20;51.53
77017;BME280;65949;53.132;17.930;2023-07-16T04:35:10;100436.51;;;24.13;51.77
77017;BME280;65949;53.132;17.930;2023-07-16T04:37:36;100464.23;;;24.08;51.81
77017;BME280;65949;53.132;17.930;2023-07-16T04:40:03;100477.14;;;24.04;52.15
77017;BME280;65949;53.132;17.930;2023-07-16T04:42:30;100476.29;;;24.00;52.35
77017;BME280;65949;53.132;17.930;2023-07-16T04:44:57;100474.75;;;23.93;52.45
77017;BME280;65949;53.132;17.930;2023-07-16T04:47:23;100479.64;;;23.94;52.52
77017;BME280;65949;53.132;17.930;2023-07-16T04:49:50;100482.77;;;23.91;52.48
77017;BME280;65949;53.132;17.930;2023-07-16T04:52:17;100472.15;;;23.93;52.84
77017;BME280;65949;53.132;17.930;2023-07-16T04:54:43;100492.30;;;24.02;52.63
77017;BME280;65949;53.132;17.930;2023-07-16T04:57:10;100517.70;;;24.04;52.79
77017;BME280;65949;53.132;17.930;2023-07-16T04:59:36;100511.95;;;24.03;53.05
77017;BME280;65949;53.132;17.930;2023-07-16T05:02:05;100509.85;;;24.03;53.03
77017;BME280;65949;53.132;17.930;2023-07-16T05:04:32;100515.91;;;24.15;53.00
77017;BME280;65949;53.132;17.930;2023-07-16T05:07:01;100510.02;;;24.76;52.03
77017;BME280;65949;53.132;17.930;2023-07-16T05:09:28;100504.54;;;25.73;50.74
77017;BME280;65949;53.132;17.930;2023-07-16T05:11:55;100508.73;;;26.51;49.36
77017;BME280;65949;53.132;17.930;2023-07-16T05:14:21;100505.72;;;27.57;47.29
77017;BME280;65949;53.132;17.930;2023-07-16T05:16:48;100498.44;;;28.22;46.28
77017;BME280;65949;53.132;17.930;2023-07-16T05:19:15;100489.73;;;28.80;45.25
77017;BME280;65949;53.132;17.930;2023-07-16T05:21:41;100490.61;;;29.43;43.86
77017;BME280;65949;53.132;17.930;2023-07-16T05:24:08;100486.16;;;29.50;43.68
77017;BME280;65949;53.132;17.930;2023-07-16T05:26:34;100492.04;;;29.70;43.03
77017;BME280;65949;53.132;17.930;2023-07-16T05:29:01;100483.96;;;29.60;42.84
77017;BME280;65949;53.132;17.930;2023-07-16T05:31:28;100487.52;;;29.70;42.29
77017;BME280;65949;53.132;17.930;2023-07-16T05:33:55;100495.59;;;29.39;42.86
77017;BME280;65949;53.132;17.930;2023-07-16T05:36:21;100493.90;;;29.43;42.96
77017;BME280;65949;53.132;17.930;2023-07-16T05:38:48;100500.77;;;30.11;42.01
77017;BME280;65949;53.132;17.930;2023-07-16T05:41:16;100497.17;;;30.71;40.87
77017;BME280;65949;53.132;17.930;2023-07-16T05:43:42;100495.48;;;31.08;39.78
77017;BME280;65949;53.132;17.930;2023-07-16T05:46:09;100498.00;;;31.28;38.76
77017;BME280;65949;53.132;17.930;2023-07-16T05:48:35;100502.35;;;31.54;38.35
77017;BME280;65949;53.132;17.930;2023-07-16T05:51:02;100502.60;;;31.71;37.58
77017;BME280;65949;53.132;17.930;2023-07-16T05:53:28;100502.27;;;31.75;37.47
77017;BME280;65949;53.132;17.930;2023-07-16T05:55:55;100500.17;;;31.98;37.38
77017;BME280;65949;53.132;17.930;2023-07-16T05:58:22;100500.17;;;32.13;36.37
77017;BME280;65949;53.132;17.930;2023-07-16T06:00:48;100512.02;;;31.91;35.99
77017;BME280;65949;53.132;17.930;2023-07-16T06:03:15;100527.35;;;31.83;36.42
77017;BME280;65949;53.132;17.930;2023-07-16T06:05:43;100530.70;;;31.75;35.99
77017;BME280;65949;53.132;17.930;2023-07-16T06:08:09;100534.88;;;31.84;36.18
77017;BME280;65949;53.132;17.930;2023-07-16T06:10:36;100537.79;;;32.03;35.88
77017;BME280;65949;53.132;17.930;2023-07-16T06:13:03;100538.48;;;32.20;35.88
77017;BME280;65949;53.132;17.930;2023-07-16T06:15:29;100546.36;;;32.37;35.35
77017;BME280;65949;53.132;17.930;2023-07-16T06:17:56;100559.99;;;32.38;34.88
77017;BME280;65949;53.132;17.930;2023-07-16T06:20:22;100567.52;;;32.22;34.34
77017;BME280;65949;53.132;17.930;2023-07-16T06:22:49;100567.94;;;31.91;35.09
77017;BME280;65949;53.132;17.930;2023-07-16T06:25:15;100565.64;;;31.81;35.49
77017;BME280;65949;53.132;17.930;2023-07-16T06:27:42;100563.11;;;31.64;35.38
77017;BME280;65949;53.132;17.930;2023-07-16T06:30:09;100567.67;;;31.33;35.89
77017;BME280;65949;53.132;17.930;2023-07-16T06:32:35;100575.63;;;30.88;36.53
77017;BME280;65949;53.132;17.930;2023-07-16T06:35:02;100571.58;;;30.45;37.60
77017;BME280;65949;53.132;17.930;2023-07-16T06:37:29;100570.60;;;30.30;37.84
77017;BME280;65949;53.132;17.930;2023-07-16T06:39:55;100571.67;;;29.95;38.26
77017;BME280;65949;53.132;17.930;2023-07-16T06:42:22;100568.38;;;29.61;39.08
77017;BME280;65949;53.132;17.930;2023-07-16T06:44:49;100563.27;;;29.44;39.68
77017;BME280;65949;53.132;17.930;2023-07-16T06:47:15;100565.81;;;29.18;40.65
77017;BME280;65949;53.132;17.930;2023-07-16T06:49:42;100565.90;;;28.92;41.41
77017;BME280;65949;53.132;17.930;2023-07-16T06:52:18;100569.52;;;28.79;41.47
77017;BME280;65949;53.132;17.930;2023-07-16T06:54:45;100571.81;;;28.77;41.84
77017;BME280;65949;53.132;17.930;2023-07-16T06:57:12;100577.57;;;28.78;41.94
77017;BME280;65949;53.132;17.930;2023-07-16T06:59:39;100580.58;;;28.82;42.08
77017;BME280;65949;53.132;17.930;2023-07-16T07:02:05;100583.27;;;28.84;41.87
77017;BME280;65949;53.132;17.930;2023-07-16T07:04:32;100585.61;;;28.78;42.04
77017;BME280;65949;53.132;17.930;2023-07-16T07:06:59;100596.35;;;28.79;42.37
77017;BME280;65949;53.132;17.930;2023-07-16T07:09:25;100594.16;;;28.72;42.27
77017;BME280;65949;53.132;17.930;2023-07-16T07:11:52;100599.23;;;28.60;42.24
77017;BME280;65949;53.132;17.930;2023-07-16T07:14:18;100605.89;;;28.73;42.43
77017;BME280;65949;53.132;17.930;2023-07-16T07:16:45;100605.83;;;28.87;42.06
77017;BME280;65949;53.132;17.930;2023-07-16T07:19:11;100603.29;;;29.00;41.98
77017;BME280;65949;53.132;17.930;2023-07-16T07:21:38;100603.45;;;29.13;41.77
77017;BME280;65949;53.132;17.930;2023-07-16T07:24:05;100608.77;;;29.18;41.20
77017;BME280;65949;53.132;17.930;2023-07-16T07:26:31;100612.90;;;29.18;41.21
77017;BME280;65949;53.132;17.930;2023-07-16T07:28:58;100611.38;;;29.19;41.66
77017;BME280;65949;53.132;17.930;2023-07-16T07:31:24;100612.09;;;29.29;41.61
77017;BME280;65949;53.132;17.930;2023-07-16T07:33:51;100614.58;;;29.55;41.37
77017;BME280;65949;53.132;17.930;2023-07-16T07:36:19;100614.80;;;29.77;41.03
77017;BME280;65949;53.132;17.930;2023-07-16T07:38:46;100615.73;;;29.97;40.52
77017;BME280;65949;53.132;17.930;2023-07-16T07:41:13;100608.23;;;30.08;40.39
77017;BME280;65949;53.132;17.930;2023-07-16T07:43:39;100607.56;;;30.20;39.94
77017;BME280;65949;53.132;17.930;2023-07-16T07:46:06;100610.94;;;30.28;39.63
77017;BME280;65949;53.132;17.930;2023-07-16T07:48:32;100614.45;;;30.40;39.65
77017;BME280;65949;53.132;17.930;2023-07-16T07:50:59;100616.66;;;30.58;39.55
77017;BME280;65949;53.132;17.930;2023-07-16T07:53:26;100617.50;;;30.79;39.23
77017;BME280;65949;53.132;17.930;2023-07-16T07:55:54;100619.83;;;30.98;38.88
77017;BME280;65949;53.132;17.930;2023-07-16T07:58:23;100626.02;;;31.10;38.68
77017;BME280;65949;53.132;17.930;2023-07-16T08:00:51;100625.44;;;31.00;38.87
77017;BME280;65949;53.132;17.930;2023-07-16T08:03:18;100627.65;;;30.87;38.89
77017;BME280;65949;53.132;17.930;2023-07-16T08:05:48;100636.04;;;30.68;38.92
77017;BME280;65949;53.132;17.930;2023-07-16T08:08:15;100643.13;;;30.43;39.14
77017;BME280;65949;53.132;17.930;2023-07-16T08:10:42;100649.42;;;30.30;39.51
77017;BME280;65949;53.132;17.930;2023-07-16T08:13:09;100650.58;;;30.26;38.80
77017;BME280;65949;53.132;17.930;2023-07-16T08:15:36;100644.83;;;30.26;38.46
77017;BME280;65949;53.132;17.930;2023-07-16T08:18:02;100627.30;;;30.23;38.12
77017;BME280;65949;53.132;17.930;2023-07-16T08:20:29;100623.42;;;30.10;38.59
77017;BME280;65949;53.132;17.930;2023-07-16T08:22:56;100621.89;;;30.07;39.15
77017;BME280;65949;53.132;17.930;2023-07-16T08:25:23;100614.90;;;29.99;39.44
77017;BME280;65949;53.132;17.930;2023-07-16T08:27:49;100620.80;;;29.92;39.55
77017;BME280;65949;53.132;17.930;2023-07-16T08:30:16;100630.95;;;29.92;39.44
77017;BME280;65949;53.132;17.930;2023-07-16T08:32:42;100636.77;;;29.95;39.31
77017;BME280;65949;53.132;17.930;2023-07-16T08:35:09;100640.79;;;30.02;38.61
77017;BME280;65949;53.132;17.930;2023-07-16T08:37:43;100651.23;;;30.02;38.72
77017;BME280;65949;53.132;17.930;2023-07-16T08:40:12;100664.81;;;30.00;38.87
77017;BME280;65949;53.132;17.930;2023-07-16T08:42:39;100669.64;;;29.94;38.92
77017;BME280;65949;53.132;17.930;2023-07-16T08:45:07;100675.50;;;30.01;38.81
77017;BME280;65949;53.132;17.930;2023-07-16T08:47:36;100671.66;;;30.02;38.47
77017;BME280;65949;53.132;17.930;2023-07-16T08:50:03;100671.73;;;29.95;38.72
77017;BME280;65949;53.132;17.930;2023-07-16T08:52:30;100668.77;;;29.74;39.26
77017;BME280;65949;53.132;17.930;2023-07-16T08:54:57;100680.29;;;29.58;39.75
77017;BME280;65949;53.132;17.930;2023-07-16T08:57:25;100690.88;;;29.46;39.96
77017;BME280;65949;53.132;17.930;2023-07-16T08:59:52;100701.91;;;29.27;40.76
77017;BME280;65949;53.132;17.930;2023-07-16T09:02:20;100716.33;;;29.10;41.35
77017;BME280;65949;53.132;17.930;2023-07-16T09:04:48;100722.91;;;29.09;41.46
77017;BME280;65949;53.132;17.930;2023-07-16T09:07:15;100727.43;;;29.18;41.48
77017;BME280;65949;53.132;17.930;2023-07-16T09:09:42;100736.48;;;29.32;41.45
77017;BME280;65949;53.132;17.930;2023-07-16T09:12:12;100746.27;;;29.41;41.46
77017;BME280;65949;53.132;17.930;2023-07-16T09:14:40;100756.75;;;29.37;41.46
77017;BME280;65949;53.132;17.930;2023-07-16T09:17:08;100758.37;;;29.25;41.44
77017;BME280;65949;53.132;17.930;2023-07-16T09:19:35;100767.24;;;29.20;41.48
77017;BME280;65949;53.132;17.930;2023-07-16T09:22:02;100779.16;;;29.12;41.58
77017;BME280;65949;53.132;17.930;2023-07-16T09:24:29;100781.98;;;28.96;41.96
77017;BME280;65949;53.132;17.930;2023-07-16T09:26:55;100783.99;;;28.88;42.01
77017;BME280;65949;53.132;17.930;2023-07-16T09:29:24;100789.69;;;28.72;42.15
77017;BME280;65949;53.132;17.930;2023-07-16T09:32:01;100790.80;;;28.60;42.36
77017;BME280;65949;53.132;17.930;2023-07-16T09:34:34;100798.93;;;28.51;42.56
77017;BME280;65949;53.132;17.930;2023-07-16T09:37:01;100794.44;;;28.41;42.85
77017;BME280;65949;53.132;17.930;2023-07-16T09:39:28;100805.10;;;28.36;42.84
77017;BME280;65949;53.132;17.930;2023-07-16T09:41:54;100814.55;;;28.19;42.96
77017;BME280;65949;53.132;17.930;2023-07-16T09:44:24;100817.76;;;27.98;43.45
77017;BME280;65949;53.132;17.930;2023-07-16T09:46:50;100821.61;;;27.73;43.76
77017;BME280;65949;53.132;17.930;2023-07-16T09:49:17;100820.13;;;27.54;44.72
77017;BME280;65949;53.132;17.930;2023-07-16T09:51:45;100833.28;;;27.39;45.70
77017;BME280;65949;53.132;17.930;2023-07-16T09:54:13;100831.34;;;27.19;47.34
77017;BME280;65949;53.132;17.930;2023-07-16T09:56:47;100831.21;;;26.88;48.32
77017;BME280;65949;53.132;17.930;2023-07-16T09:59:23;100832.56;;;26.50;50.02
77017;BME280;65949;53.132;17.930;2023-07-16T10:01:52;100825.59;;;26.17;51.42
77017;BME280;65949;53.132;17.930;2023-07-16T10:04:19;100836.12;;;25.96;52.71
77017;BME280;65949;53.132;17.930;2023-07-16T10:06:53;100839.77;;;25.78;53.56
77017;BME280;65949;53.132;17.930;2023-07-16T10:09:50;100838.59;;;25.70;54.60
77017;BME280;65949;53.132;17.930;2023-07-16T10:12:19;100835.58;;;25.71;54.75
77017;BME280;65949;53.132;17.930;2023-07-16T10:14:53;100832.30;;;25.85;55.54
77017;BME280;65949;53.132;17.930;2023-07-16T10:17:24;100832.76;;;25.98;55.79
77017;BME280;65949;53.132;17.930;2023-07-16T10:20:09;100833.45;;;26.06;55.59
77017;BME280;65949;53.132;17.930;2023-07-16T10:22:41;100832.64;;;26.15;55.58
77017;BME280;65949;53.132;17.930;2023-07-16T10:25:21;100833.84;;;26.14;55.41
77017;BME280;65949;53.132;17.930;2023-07-16T10:27:50;100829.30;;;26.04;55.51
77017;BME280;65949;53.132;17.930;2023-07-16T10:30:17;100812.69;;;25.92;55.24
77017;BME280;65949;53.132;17.930;2023-07-16T10:32:44;100816.23;;;25.83;55.34
77017;BME280;65949;53.132;17.930;2023-07-16T10:35:12;100818.84;;;25.74;55.76
77017;BME280;65949;53.132;17.930;2023-07-16T10:37:39;100819.75;;;25.63;55.95
77017;BME280;65949;53.132;17.930;2023-07-16T10:40:11;100804.90;;;25.50;56.59
77017;BME280;65949;53.132;17.930;2023-07-16T10:42:40;100794.46;;;25.38;57.54
77017;BME280;65949;53.132;17.930;2023-07-16T10:45:07;100807.30;;;25.29;58.18
77017;BME280;65949;53.132;17.930;2023-07-16T10:47:36;100822.83;;;25.26;58.54
77017;BME280;65949;53.132;17.930;2023-07-16T10:50:07;100826.85;;;25.22;59.00
77017;BME280;65949;53.132;17.930;2023-07-16T10:52:35;100819.29;;;25.21;59.39
77017;BME280;65949;53.132;17.930;2023-07-16T10:55:04;100821.76;;;25.28;60.68
77017;BME280;65949;53.132;17.930;2023-07-16T10:57:30;100819.80;;;25.42;61.06
77017;BME280;65949;53.132;17.930;2023-07-16T10:59:58;100827.20;;;25.69;61.42
77017;BME280;65949;53.132;17.930;2023-07-16T11:02:25;100828.70;;;25.91;61.24
77017;BME280;65949;53.132;17.930;2023-07-16T11:04:53;100823.60;;;26.13;61.19
77017;BME280;65949;53.132;17.930;2023-07-16T11:07:20;100825.52;;;26.41;60.55
77017;BME280;65949;53.132;17.930;2023-07-16T11:09:52;100815.04;;;26.60;59.92
77017;BME280;65949;53.132;17.930;2023-07-16T11:12:22;100820.48;;;26.87;58.75
77017;BME280;65949;53.132;17.930;2023-07-16T11:14:52;100824.07;;;27.14;58.86
77017;BME280;65949;53.132;17.930;2023-07-16T11:17:20;100832.00;;;27.45;57.54
77017;BME280;65949;53.132;17.930;2023-07-16T11:19:50;100820.48;;;27.63;56.65
77017;BME280;65949;53.132;17.930;2023-07-16T11:22:18;100820.80;;;27.59;55.97
77017;BME280;65949;53.132;17.930;2023-07-16T11:24:46;100823.15;;;27.57;55.85
77017;BME280;65949;53.132;17.930;2023-07-16T11:27:18;100820.02;;;27.57;54.01
77017;BME280;65949;53.132;17.930;2023-07-16T11:29:50;100819.45;;;27.39;53.12
77017;BME280;65949;53.132;17.930;2023-07-16T11:32:33;100807.95;;;27.28;53.43
77017;BME280;65949;53.132;17.930;2023-07-16T11:35:05;100808.63;;;27.23;53.72
77017;BME280;65949;53.132;17.930;2023-07-16T11:37:33;100818.35;;;27.23;55.06
77017;BME280;65949;53.132;17.930;2023-07-16T11:40:08;100823.02;;;27.28;54.06
77017;BME280;65949;53.132;17.930;2023-07-16T11:42:38;100826.02;;;27.39;52.86
77017;BME280;65949;53.132;17.930;2023-07-16T11:45:15;100831.45;;;27.44;52.26
77017;BME280;65949;53.132;17.930;2023-07-16T11:47:42;100821.71;;;27.53;52.35
77017;BME280;65949;53.132;17.930;2023-07-16T11:50:09;100819.41;;;27.63;51.67
77017;BME280;65949;53.132;17.930;2023-07-16T11:52:36;100817.58;;;27.63;51.48
77017;BME280;65949;53.132;17.930;2023-07-16T11:55:03;100821.11;;;27.65;51.02
77017;BME280;65949;53.132;17.930;2023-07-16T11:57:32;100821.42;;;27.70;51.33
77017;BME280;65949;53.132;17.930;2023-07-16T11:59:58;100821.60;;;27.87;50.39
77017;BME280;65949;53.132;17.930;2023-07-16T12:02:26;100828.08;;;28.09;50.38
77017;BME280;65949;53.132;17.930;2023-07-16T12:04:52;100830.48;;;28.38;49.83
77017;BME280;65949;53.132;17.930;2023-07-16T12:07:31;100831.65;;;28.44;48.51
77017;BME280;65949;53.132;17.930;2023-07-16T12:09:58;100827.73;;;28.51;47.90
77017;BME280;65949;53.132;17.930;2023-07-16T12:12:24;100825.59;;;28.59;47.18
77017;BME280;65949;53.132;17.930;2023-07-16T12:14:51;100825.09;;;28.70;47.24
77017;BME280;65949;53.132;17.930;2023-07-16T12:17:18;100827.72;;;28.90;47.31
77017;BME280;65949;53.132;17.930;2023-07-16T12:19:44;100818.20;;;28.96;46.99
77017;BME280;65949;53.132;17.930;2023-07-16T12:22:11;100818.05;;;29.12;46.84
77017;BME280;65949;53.132;17.930;2023-07-16T12:24:38;100823.52;;;29.27;46.44
77017;BME280;65949;53.132;17.930;2023-07-16T12:27:05;100825.02;;;29.23;45.91
77017;BME280;65949;53.132;17.930;2023-07-16T12:29:32;100832.95;;;28.91;46.63
77017;BME280;65949;53.132;17.930;2023-07-16T12:31:58;100830.86;;;28.72;47.13
77017;BME280;65949;53.132;17.930;2023-07-16T12:34:26;100828.34;;;28.66;47.69
77017;BME280;65949;53.132;17.930;2023-07-16T12:36:53;100831.00;;;28.71;47.61
77017;BME280;65949;53.132;17.930;2023-07-16T12:39:22;100831.42;;;28.67;47.47
77017;BME280;65949;53.132;17.930;2023-07-16T12:41:49;100832.54;;;28.64;46.69
77017;BME280;65949;53.132;17.930;2023-07-16T12:44:16;100830.48;;;28.73;46.93
77017;BME280;65949;53.132;17.930;2023-07-16T12:46:42;100827.63;;;28.71;47.05
77017;BME280;65949;53.132;17.930;2023-07-16T12:49:09;100827.89;;;28.75;46.94